createdAt,value
2022-08-21T00:00:22.507Z,4.10
2022-08-21T00:03:03.087Z,4.43
2022-08-21T00:05:29.552Z,4.10
2022-08-21T00:07:55.927Z,4.30
2022-08-21T00:10:22.488Z,4.22
2022-08-21T00:12:48.915Z,4.20
2022-08-21T00:15:20.862Z,4.50
2022-08-21T00:17:47.285Z,4.20
2022-08-21T00:20:14.550Z,4.35
2022-08-21T00:22:41.001Z,4.10
2022-08-21T00:25:08.150Z,4.37
2022-08-21T00:27:34.770Z,4.10
2022-08-21T00:30:01.165Z,4.05
2022-08-21T00:32:27.839Z,4.10
2022-08-21T00:34:54.451Z,3.90
2022-08-21T00:37:20.694Z,3.92
2022-08-21T00:39:53.550Z,3.90
2022-08-21T00:42:20.671Z,4.00
2022-08-21T00:44:48.595Z,3.78
2022-08-21T00:47:14.865Z,3.75
2022-08-21T00:49:41.149Z,3.62
2022-08-21T00:52:09.611Z,3.80
2022-08-21T00:54:35.874Z,3.45
2022-08-21T00:57:05.237Z,3.37
2022-08-21T00:59:33.208Z,3.47
2022-08-21T01:01:59.557Z,3.42
2022-08-21T01:04:25.808Z,3.33
2022-08-21T01:06:52.178Z,3.50
2022-08-21T01:09:19.308Z,3.45
2022-08-21T01:11:45.771Z,3.40
2022-08-21T01:14:12.801Z,3.35
2022-08-21T01:16:43.373Z,3.33
2022-08-21T01:19:09.883Z,3.40
2022-08-21T01:21:38.456Z,3.37
2022-08-21T01:24:05.991Z,3.50
2022-08-21T01:26:34.902Z,3.33
2022-08-21T01:29:15.914Z,3.45
2022-08-21T01:31:42.182Z,3.40
2022-08-21T01:34:09.612Z,3.30
2022-08-21T01:36:35.953Z,3.30
2022-08-21T01:39:05.178Z,3.40
2022-08-21T01:41:31.481Z,3.40
2022-08-21T01:43:57.792Z,3.45
2022-08-21T01:46:24.033Z,3.12
2022-08-21T01:48:50.290Z,3.37
2022-08-21T01:51:16.908Z,3.30
2022-08-21T01:53:43.159Z,3.60
2022-08-21T01:56:12.578Z,3.40
2022-08-21T01:58:40.719Z,3.33
2022-08-21T02:01:07.148Z,3.40
2022-08-21T02:03:35.939Z,3.12
2022-08-21T02:06:03.884Z,3.17
2022-08-21T02:08:30.157Z,3.08
2022-08-21T02:10:56.437Z,3.20
2022-08-21T02:13:22.701Z,3.03
2022-08-21T02:15:50.272Z,3.17
2022-08-21T02:18:16.500Z,3.33
2022-08-21T02:20:48.459Z,3.33
2022-08-21T02:23:14.895Z,3.30
2022-08-21T02:25:41.207Z,3.12
2022-08-21T02:28:09.919Z,3.30
2022-08-21T02:30:38.872Z,3.30
2022-08-21T02:33:05.632Z,3.17
2022-08-21T02:35:31.934Z,3.50
2022-08-21T02:38:00.356Z,3.40
2022-08-21T02:40:31.068Z,3.22
2022-08-21T02:42:58.670Z,3.35
2022-08-21T02:45:25.060Z,3.20
2022-08-21T02:48:01.954Z,3.30
2022-08-21T02:50:33.519Z,3.30
2022-08-21T02:53:00.057Z,3.20
2022-08-21T02:55:27.895Z,3.20
2022-08-21T02:57:54.881Z,3.10
2022-08-21T03:00:21.627Z,3.03
2022-08-21T03:02:48.653Z,3.10
2022-08-21T03:05:15.431Z,3.00
2022-08-21T03:07:42.933Z,3.10
2022-08-21T03:10:09.307Z,3.10
2022-08-21T03:12:38.653Z,3.08
2022-08-21T03:15:06.738Z,3.20
2022-08-21T03:17:34.137Z,3.30
2022-08-21T03:20:00.697Z,3.30
2022-08-21T03:22:27.411Z,3.10
2022-08-21T03:24:54.797Z,3.20
2022-08-21T03:27:21.061Z,3.30
2022-08-21T03:29:49.076Z,3.37
2022-08-21T03:32:15.478Z,3.22
2022-08-21T03:34:42.462Z,3.10
2022-08-21T03:37:08.787Z,3.00
2022-08-21T03:39:35.101Z,3.30
2022-08-21T03:42:01.469Z,3.30
2022-08-21T03:44:29.123Z,3.20
2022-08-21T03:46:56.297Z,3.40
2022-08-21T03:49:22.573Z,3.20
2022-08-21T03:51:49.586Z,3.10
2022-08-21T03:54:26.144Z,3.10
2022-08-21T03:56:55.334Z,3.50
2022-08-21T03:59:21.616Z,3.40
2022-08-21T04:01:59.430Z,3.30
2022-08-21T04:04:26.437Z,3.30
2022-08-21T04:06:52.763Z,3.17
2022-08-21T04:09:19.196Z,3.10
2022-08-21T04:11:46.448Z,3.30
2022-08-21T07:18:35.619Z,2.80
2022-08-21T07:21:04.055Z,2.90
2022-08-21T07:23:32.366Z,2.70
2022-08-21T07:26:00.887Z,3.17
2022-08-21T07:28:28.266Z,2.80
2022-08-21T07:30:55.861Z,2.80
2022-08-21T07:33:22.691Z,2.90
2022-08-21T07:35:49.074Z,3.08
2022-08-21T07:38:15.661Z,2.70
2022-08-21T07:40:41.952Z,2.75
2022-08-21T07:43:08.809Z,2.87
2022-08-21T07:45:35.608Z,2.92
2022-08-21T07:48:02.089Z,3.58
2022-08-21T07:50:28.416Z,3.00
2022-08-21T07:52:54.755Z,2.80
2022-08-21T07:55:22.131Z,2.80
2022-08-21T07:57:48.535Z,2.90
2022-08-21T08:00:17.417Z,2.92
2022-08-21T08:02:46.124Z,3.10
2022-08-21T08:05:13.053Z,3.40
2022-08-21T08:07:39.847Z,3.25
2022-08-21T08:10:07.403Z,3.12
2022-08-21T08:12:38.491Z,3.17
2022-08-21T08:15:06.174Z,3.10
2022-08-21T08:17:35.555Z,2.80
2022-08-21T08:20:03.061Z,2.60
2022-08-21T08:22:29.463Z,2.70
2022-08-21T08:24:56.796Z,2.50
2022-08-21T08:27:23.282Z,2.70
2022-08-21T08:29:50.564Z,2.60
2022-08-21T08:32:17.214Z,2.65
2022-08-21T08:34:43.703Z,2.67
2022-08-21T08:37:10.696Z,2.50
2022-08-21T08:39:37.212Z,2.50
2022-08-21T08:42:33.709Z,2.50
2022-08-21T08:45:09.739Z,2.50
2022-08-21T08:47:38.622Z,2.55
2022-08-21T08:50:48.378Z,2.90
2022-08-21T08:53:40.702Z,2.80
2022-08-21T08:56:07.024Z,2.70
2022-08-21T08:58:40.627Z,2.70
2022-08-21T09:01:14.506Z,2.70
2022-08-21T09:03:40.973Z,2.70
2022-08-21T09:06:29.447Z,2.70
2022-08-21T09:10:39.842Z,2.70
2022-08-21T09:13:21.462Z,2.80
2022-08-21T09:16:00.935Z,2.85
2022-08-21T09:18:51.608Z,3.00
2022-08-21T09:21:42.352Z,2.90
2022-08-21T09:27:40.854Z,3.00
2022-08-21T09:30:08.946Z,2.67
2022-08-21T09:32:37.136Z,2.53
2022-08-21T09:35:16.216Z,2.60
2022-08-21T09:38:03.548Z,2.60
2022-08-21T09:40:43.845Z,2.45
2022-08-21T09:43:20.478Z,2.58
2022-08-21T09:45:47.799Z,2.50
2022-08-21T09:48:26.365Z,2.50
2022-08-21T09:50:54.097Z,2.45
2022-08-21T09:53:25.817Z,2.60
2022-08-21T09:56:24.319Z,2.72
2022-08-21T09:58:51.689Z,2.70
2022-08-21T10:01:23.309Z,3.03
2022-08-21T10:04:01.678Z,2.67
2022-08-21T10:06:28.427Z,3.00
2022-08-21T10:09:11.381Z,3.53
2022-08-21T10:11:43.351Z,3.72
2022-08-21T10:14:45.113Z,3.45
2022-08-21T10:17:32.745Z,3.70
2022-08-21T10:21:28.403Z,3.70
2022-08-21T10:24:32.021Z,3.40
2022-08-21T10:27:38.037Z,3.60
2022-08-21T10:30:16.528Z,3.95
2022-08-21T10:35:33.655Z,4.12
2022-08-21T10:38:52.778Z,3.70
2022-08-21T10:44:33.185Z,3.37
2022-08-21T10:48:56.777Z,3.62
2022-08-21T10:52:00.981Z,3.65
2022-08-21T10:54:56.994Z,3.90
2022-08-21T11:04:49.219Z,3.80
2022-08-21T11:07:35.098Z,3.17
2022-08-21T11:10:28.763Z,3.90
2022-08-21T11:13:09.841Z,3.30
2022-08-21T11:15:54.761Z,2.80
2022-08-21T11:18:25.993Z,3.00
2022-08-21T11:24:34.202Z,2.95
2022-08-21T11:27:33.844Z,2.65
2022-08-21T11:30:00.788Z,2.90
2022-08-21T11:33:14.667Z,3.10
2022-08-21T11:35:54.664Z,2.90
2022-08-21T11:38:48.999Z,3.00
2022-08-21T11:41:55.470Z,2.75
2022-08-21T11:44:45.974Z,2.85
2022-08-21T11:47:41.317Z,2.75
2022-08-21T11:50:34.967Z,2.67
2022-08-21T11:53:36.399Z,2.65
2022-08-21T11:56:07.243Z,2.60
2022-08-21T11:58:45.849Z,3.00
2022-08-21T12:01:23.992Z,2.92
2022-08-21T12:03:59.167Z,2.70
2022-08-21T12:06:43.816Z,2.85
2022-08-21T12:09:34.773Z,2.90
2022-08-21T12:13:24.282Z,2.87
2022-08-21T12:16:17.332Z,2.80
2022-08-21T12:18:43.912Z,2.90
2022-08-21T12:21:28.610Z,2.75
2022-08-21T12:24:18.314Z,2.72
2022-08-21T12:26:58.782Z,2.80
2022-08-21T12:29:36.602Z,2.70
2022-08-21T12:32:27.808Z,2.80
2022-08-21T12:35:15.543Z,2.90
2022-08-21T12:38:04.454Z,2.85
2022-08-21T12:40:54.737Z,2.90
2022-08-21T12:43:35.751Z,3.10
2022-08-21T12:46:04.817Z,3.00
2022-08-21T12:48:39.610Z,3.00
2022-08-21T12:51:19.831Z,2.75
2022-08-21T12:53:53.534Z,3.00
2022-08-21T12:56:25.095Z,2.90
2022-08-21T12:58:54.399Z,2.83
2022-08-21T13:01:39.312Z,3.00
2022-08-21T13:04:09.798Z,2.85
2022-08-21T13:06:42.437Z,3.00
2022-08-21T13:09:12.148Z,2.95
2022-08-21T13:11:40.850Z,3.00
2022-08-21T13:14:09.412Z,2.90
2022-08-21T13:16:36.645Z,3.08
2022-08-21T13:19:07.225Z,3.10
2022-08-21T13:21:39.257Z,3.20
2022-08-21T13:27:30.907Z,3.20
2022-08-21T13:30:21.266Z,3.15
2022-08-21T13:32:50.803Z,3.20
2022-08-21T13:35:19.662Z,3.37
2022-08-21T13:37:47.048Z,3.70
2022-08-21T13:41:02.881Z,3.55
2022-08-21T13:43:32.682Z,3.55
2022-08-21T13:46:00.667Z,3.80
2022-08-21T13:48:29.716Z,4.28
2022-08-21T13:50:57.312Z,4.10
2022-08-21T13:53:33.784Z,4.15
2022-08-21T13:56:03.806Z,3.90
2022-08-21T13:58:34.319Z,3.95
2022-08-21T14:01:01.272Z,4.15
2022-08-21T14:03:37.486Z,4.15
2022-08-21T14:06:17.958Z,3.95
2022-08-21T14:08:55.986Z,3.92
2022-08-21T14:11:22.557Z,3.80
2022-08-21T14:13:52.176Z,3.65
2022-08-21T14:16:21.125Z,3.45
2022-08-21T14:19:08.317Z,3.58
2022-08-21T14:21:36.733Z,3.22
2022-08-21T14:26:02.519Z,3.33
2022-08-21T14:28:34.031Z,2.90
2022-08-21T14:31:15.847Z,2.85
2022-08-21T14:33:42.678Z,2.90
2022-08-21T14:36:09.195Z,3.10
2022-08-21T14:38:36.891Z,2.95
2022-08-21T14:41:21.909Z,2.90
2022-08-21T14:44:04.020Z,2.80
2022-08-21T14:46:35.848Z,2.92
2022-08-21T14:49:03.437Z,3.08
2022-08-21T14:51:29.962Z,3.08
2022-08-21T14:53:56.799Z,2.97
2022-08-21T14:56:23.529Z,3.00
2022-08-21T14:58:50.453Z,2.83
2022-08-21T15:01:18.758Z,3.03
2022-08-21T15:03:46.427Z,3.10
2022-08-21T15:06:13.521Z,3.30
2022-08-21T15:08:40.620Z,3.33
2022-08-21T15:11:19.899Z,3.10
2022-08-21T15:14:09.312Z,2.95
2022-08-21T15:16:35.793Z,3.10
2022-08-21T15:19:02.405Z,3.17
2022-08-21T15:21:29.121Z,3.00
2022-08-21T15:23:55.777Z,2.97
2022-08-21T15:26:23.894Z,3.03
2022-08-21T15:28:50.310Z,3.10
2022-08-21T15:31:16.651Z,3.05
2022-08-21T15:33:42.944Z,3.08
2022-08-21T15:36:09.295Z,3.17
2022-08-21T15:38:35.617Z,3.22
2022-08-21T15:41:03.967Z,3.45
2022-08-21T15:43:32.678Z,3.37
2022-08-21T15:45:59.932Z,3.65
2022-08-21T15:48:26.916Z,3.58
2022-08-21T15:50:53.493Z,3.45
2022-08-21T15:53:19.762Z,4.05
2022-08-21T15:55:46.005Z,3.60
2022-08-21T15:58:16.394Z,4.12
2022-08-21T16:00:44.840Z,4.40
2022-08-21T16:03:15.822Z,4.62
2022-08-21T16:05:42.634Z,4.78
2022-08-21T16:08:10.851Z,4.53
2022-08-21T16:10:38.257Z,4.22
2022-08-21T16:13:06.704Z,4.55
2022-08-21T16:15:33.179Z,4.62
2022-08-21T16:17:59.595Z,4.75
2022-08-21T16:20:28.114Z,4.40
2022-08-21T16:22:55.620Z,4.68
2022-08-21T16:25:22.056Z,4.50
2022-08-21T16:27:57.295Z,4.53
2022-08-21T16:30:26.191Z,4.35
2022-08-21T16:32:52.643Z,4.40
2022-08-21T16:35:20.089Z,4.10
2022-08-21T16:37:50.035Z,4.03
2022-08-21T16:40:23.228Z,3.85
2022-08-21T16:42:51.419Z,3.80
2022-08-21T16:45:18.725Z,3.83
2022-08-21T16:47:46.893Z,3.97
2022-08-21T16:50:16.035Z,3.90
2022-08-21T16:52:44.270Z,3.65
2022-08-21T16:55:10.655Z,3.58
2022-08-21T16:57:38.920Z,3.42
2022-08-21T17:00:13.751Z,3.37
2022-08-21T17:02:44.236Z,3.15
2022-08-21T17:05:12.941Z,3.10
2022-08-21T17:07:42.240Z,3.00
2022-08-21T17:10:09.154Z,3.10
2022-08-21T17:12:35.612Z,3.20
2022-08-21T17:15:08.860Z,3.30
2022-08-21T17:17:36.057Z,3.20
2022-08-21T17:20:03.964Z,3.17
2022-08-21T17:22:30.908Z,3.58
2022-08-21T17:24:57.347Z,3.50
2022-08-21T17:27:26.785Z,3.45
2022-08-21T17:29:54.137Z,3.60
2022-08-21T17:32:20.416Z,3.30
2022-08-21T17:34:47.878Z,3.22
2022-08-21T17:37:14.605Z,3.15
2022-08-21T17:39:41.638Z,3.10
2022-08-21T17:42:11.671Z,3.05
2022-08-21T17:44:39.997Z,2.92
2022-08-21T17:47:06.885Z,3.20
2022-08-21T17:49:34.026Z,3.05
2022-08-21T17:52:01.611Z,4.30
2022-08-21T17:54:29.117Z,2.72
2022-08-21T17:56:55.884Z,2.80
2022-08-21T17:59:25.634Z,2.80
2022-08-21T18:01:54.794Z,2.70
2022-08-21T18:04:21.961Z,2.72
2022-08-21T18:06:50.902Z,2.72
2022-08-21T18:09:18.324Z,2.70
2022-08-21T18:11:45.130Z,2.80
2022-08-21T18:14:12.024Z,2.67
2022-08-21T18:16:38.497Z,2.60
2022-08-21T18:19:13.096Z,2.58
2022-08-21T18:21:40.300Z,2.67
2022-08-21T18:24:07.635Z,2.55
2022-08-21T18:26:38.852Z,2.50
2022-08-21T18:29:07.872Z,2.70
2022-08-21T18:31:35.903Z,3.85
2022-08-21T18:34:05.950Z,2.87
2022-08-21T18:36:34.085Z,2.50
2022-08-21T18:39:25.583Z,2.58
2022-08-21T18:42:03.939Z,2.58
2022-08-21T18:44:30.961Z,2.62
2022-08-21T18:47:11.658Z,2.72
2022-08-21T18:49:43.658Z,2.65
2022-08-21T18:52:17.856Z,2.70
2022-08-21T18:54:50.272Z,2.80
2022-08-21T18:57:21.620Z,2.70
2022-08-21T18:59:50.977Z,2.70
2022-08-21T19:02:18.238Z,2.75
2022-08-21T19:04:48.014Z,2.75
2022-08-21T19:07:16.735Z,2.62
